sensor_id;sensor_type;location;lat;lon;timestamp;P1;durP1;ratioP1;P2;durP2;ratioP2
33270;SDS011;53180;51.344;6.152;2023-04-24T00:00:18;3.50;;;2.17;;
33270;SDS011;53180;51.344;6.152;2023-04-24T00:02:48;2.42;;;1.80;;
33270;SDS011;53180;51.344;6.152;2023-04-24T00:05:17;1.75;;;1.60;;
33270;SDS011;53180;51.344;6.152;2023-04-24T00:07:46;2.15;;;1.60;;
33270;SDS011;53180;51.344;6.152;2023-04-24T00:10:14;3.80;;;1.90;;
33270;SDS011;53180;51.344;6.152;2023-04-24T00:12:42;5.93;;;2.08;;
33270;SDS011;53180;51.344;6.152;2023-04-24T00:15:11;2.58;;;2.10;;
33270;SDS011;53180;51.344;6.152;2023-04-24T00:17:39;2.50;;;2.03;;
33270;SDS011;53180;51.344;6.152;2023-04-24T00:20:09;2.67;;;2.03;;
33270;SDS011;53180;51.344;6.152;2023-04-24T00:22:39;2.33;;;1.90;;
33270;SDS011;53180;51.344;6.152;2023-04-24T00:25:08;3.60;;;2.20;;
33270;SDS011;53180;51.344;6.152;2023-04-24T00:27:36;2.67;;;2.10;;
33270;SDS011;53180;51.344;6.152;2023-04-24T00:30:05;4.65;;;2.20;;
33270;SDS011;53180;51.344;6.152;2023-04-24T00:32:35;3.30;;;2.53;;
33270;SDS011;53180;51.344;6.152;2023-04-24T00:35:04;2.70;;;1.95;;
33270;SDS011;53180;51.344;6.152;2023-04-24T00:37:35;6.13;;;2.10;;
33270;SDS011;53180;51.344;6.152;2023-04-24T00:40:03;2.88;;;2.22;;
33270;SDS011;53180;51.344;6.152;2023-04-24T00:42:33;3.37;;;2.50;;
33270;SDS011;53180;51.344;6.152;2023-04-24T00:45:02;5.07;;;2.83;;
33270;SDS011;53180;51.344;6.152;2023-04-24T00:47:32;3.50;;;2.50;;
33270;SDS011;53180;51.344;6.152;2023-04-24T00:50:01;3.35;;;2.30;;
33270;SDS011;53180;51.344;6.152;2023-04-24T00:52:30;3.97;;;2.70;;
33270;SDS011;53180;51.344;6.152;2023-04-24T00:55:00;4.22;;;2.53;;
33270;SDS011;53180;51.344;6.152;2023-04-24T00:57:29;3.55;;;2.50;;
33270;SDS011;53180;51.344;6.152;2023-04-24T00:59:58;4.88;;;2.47;;
33270;SDS011;53180;51.344;6.152;2023-04-24T01:02:26;4.95;;;2.70;;
33270;SDS011;53180;51.344;6.152;2023-04-24T01:04:56;5.13;;;2.20;;
33270;SDS011;53180;51.344;6.152;2023-04-24T01:07:24;3.67;;;2.60;;
33270;SDS011;53180;51.344;6.152;2023-04-24T01:09:53;3.70;;;2.78;;
33270;SDS011;53180;51.344;6.152;2023-04-24T01:12:23;5.25;;;3.00;;
33270;SDS011;53180;51.344;6.152;2023-04-24T01:14:51;6.43;;;2.78;;
33270;SDS011;53180;51.344;6.152;2023-04-24T01:17:19;6.47;;;2.63;;
33270;SDS011;53180;51.344;6.152;2023-04-24T01:19:48;4.43;;;2.60;;
33270;SDS011;53180;51.344;6.152;2023-04-24T01:22:21;5.07;;;2.63;;
33270;SDS011;53180;51.344;6.152;2023-04-24T01:24:49;3.67;;;2.75;;
33270;SDS011;53180;51.344;6.152;2023-04-24T01:27:19;3.65;;;2.80;;
33270;SDS011;53180;51.344;6.152;2023-04-24T01:29:47;3.72;;;2.97;;
33270;SDS011;53180;51.344;6.152;2023-04-24T01:32:18;11.93;;;2.45;;
33270;SDS011;53180;51.344;6.152;2023-04-24T01:34:47;4.57;;;2.95;;
33270;SDS011;53180;51.344;6.152;2023-04-24T01:37:16;5.53;;;2.97;;
33270;SDS011;53180;51.344;6.152;2023-04-24T01:39:46;4.63;;;3.17;;
33270;SDS011;53180;51.344;6.152;2023-04-24T01:42:14;3.20;;;2.63;;
33270;SDS011;53180;51.344;6.152;2023-04-24T01:44:43;4.65;;;3.35;;
33270;SDS011;53180;51.344;6.152;2023-04-24T01:47:12;4.68;;;3.47;;
33270;SDS011;53180;51.344;6.152;2023-04-24T01:49:41;5.32;;;3.75;;
33270;SDS011;53180;51.344;6.152;2023-04-24T01:52:10;3.75;;;3.00;;
33270;SDS011;53180;51.344;6.152;2023-04-24T01:54:38;4.78;;;3.40;;
33270;SDS011;53180;51.344;6.152;2023-04-24T01:57:08;5.43;;;3.47;;
33270;SDS011;53180;51.344;6.152;2023-04-24T01:59:36;4.40;;;3.45;;
33270;SDS011;53180;51.344;6.152;2023-04-24T02:02:06;5.97;;;3.78;;
33270;SDS011;53180;51.344;6.152;2023-04-24T02:04:34;6.85;;;3.95;;
33270;SDS011;53180;51.344;6.152;2023-04-24T02:07:04;5.75;;;3.47;;
33270;SDS011;53180;51.344;6.152;2023-04-24T02:09:32;6.65;;;4.32;;
33270;SDS011;53180;51.344;6.152;2023-04-24T02:12:01;8.30;;;3.92;;
33270;SDS011;53180;51.344;6.152;2023-04-24T02:14:30;8.32;;;4.40;;
33270;SDS011;53180;51.344;6.152;2023-04-24T02:16:59;6.38;;;3.60;;
33270;SDS011;53180;51.344;6.152;2023-04-24T02:19:27;15.63;;;5.07;;
33270;SDS011;53180;51.344;6.152;2023-04-24T02:21:55;7.35;;;4.15;;
33270;SDS011;53180;51.344;6.152;2023-04-24T02:24:24;5.38;;;3.95;;
33270;SDS011;53180;51.344;6.152;2023-04-24T02:26:52;6.88;;;4.25;;
33270;SDS011;53180;51.344;6.152;2023-04-24T02:29:21;11.25;;;4.18;;
33270;SDS011;53180;51.344;6.152;2023-04-24T02:31:50;8.10;;;4.03;;
33270;SDS011;53180;51.344;6.152;2023-04-24T02:34:18;6.70;;;4.28;;
33270;SDS011;53180;51.344;6.152;2023-04-24T02:36:47;8.40;;;4.53;;
33270;SDS011;53180;51.344;6.152;2023-04-24T02:39:15;15.15;;;3.88;;
33270;SDS011;53180;51.344;6.152;2023-04-24T02:41:45;6.90;;;4.07;;
33270;SDS011;53180;51.344;6.152;2023-04-24T02:44:13;5.75;;;3.75;;
33270;SDS011;53180;51.344;6.152;2023-04-24T02:46:43;6.10;;;4.00;;
33270;SDS011;53180;51.344;6.152;2023-04-24T02:49:13;7.53;;;4.53;;
33270;SDS011;53180;51.344;6.152;2023-04-24T02:51:41;5.78;;;3.80;;
33270;SDS011;53180;51.344;6.152;2023-04-24T02:54:09;7.70;;;4.55;;
33270;SDS011;53180;51.344;6.152;2023-04-24T02:56:38;7.72;;;4.30;;
33270;SDS011;53180;51.344;6.152;2023-04-24T02:59:06;7.40;;;4.25;;
33270;SDS011;53180;51.344;6.152;2023-04-24T03:01:35;8.77;;;4.35;;
33270;SDS011;53180;51.344;6.152;2023-04-24T03:04:03;6.18;;;4.13;;
33270;SDS011;53180;51.344;6.152;2023-04-24T03:06:33;7.00;;;4.20;;
33270;SDS011;53180;51.344;6.152;2023-04-24T03:09:02;4.53;;;2.97;;
33270;SDS011;53180;51.344;6.152;2023-04-24T03:11:31;6.88;;;4.25;;
33270;SDS011;53180;51.344;6.152;2023-04-24T03:13:59;8.32;;;4.50;;
33270;SDS011;53180;51.344;6.152;2023-04-24T03:16:28;11.07;;;3.60;;
33270;SDS011;53180;51.344;6.152;2023-04-24T03:18:56;6.07;;;3.78;;
33270;SDS011;53180;51.344;6.152;2023-04-24T03:21:24;12.30;;;4.13;;
33270;SDS011;53180;51.344;6.152;2023-04-24T04:28:44;5.63;;;3.58;;
33270;SDS011;53180;51.344;6.152;2023-04-24T04:31:13;3.22;;;2.47;;
33270;SDS011;53180;51.344;6.152;2023-04-24T04:33:42;3.20;;;2.90;;
33270;SDS011;53180;51.344;6.152;2023-04-24T04:36:10;8.07;;;3.75;;
33270;SDS011;53180;51.344;6.152;2023-04-24T04:38:38;4.60;;;3.15;;
33270;SDS011;53180;51.344;6.152;2023-04-24T04:41:08;4.25;;;3.15;;
33270;SDS011;53180;51.344;6.152;2023-04-24T04:43:36;4.18;;;3.10;;
33270;SDS011;53180;51.344;6.152;2023-04-24T04:46:07;4.70;;;3.40;;
33270;SDS011;53180;51.344;6.152;2023-04-24T04:48:37;4.65;;;3.55;;
33270;SDS011;53180;51.344;6.152;2023-04-24T04:51:05;7.03;;;3.67;;
33270;SDS011;53180;51.344;6.152;2023-04-24T04:53:33;5.10;;;3.13;;
33270;SDS011;53180;51.344;6.152;2023-04-24T04:56:02;7.13;;;3.42;;
33270;SDS011;53180;51.344;6.152;2023-04-24T04:58:31;3.92;;;3.20;;
33270;SDS011;53180;51.344;6.152;2023-04-24T05:00:59;6.90;;;3.75;;
33270;SDS011;53180;51.344;6.152;2023-04-24T05:03:28;3.50;;;3.10;;
33270;SDS011;53180;51.344;6.152;2023-04-24T05:05:57;4.15;;;3.17;;
33270;SDS011;53180;51.344;6.152;2023-04-24T05:08:26;9.68;;;3.70;;
33270;SDS011;53180;51.344;6.152;2023-04-24T05:10:54;3.63;;;2.92;;
33270;SDS011;53180;51.344;6.152;2023-04-24T05:13:23;3.35;;;2.72;;
33270;SDS011;53180;51.344;6.152;2023-04-24T05:16:04;4.70;;;3.20;;
33270;SDS011;53180;51.344;6.152;2023-04-24T05:18:34;4.57;;;3.40;;
33270;SDS011;53180;51.344;6.152;2023-04-24T05:21:02;4.82;;;3.50;;
33270;SDS011;53180;51.344;6.152;2023-04-24T05:23:31;5.45;;;3.08;;
33270;SDS011;53180;51.344;6.152;2023-04-24T05:25:59;3.28;;;2.90;;
33270;SDS011;53180;51.344;6.152;2023-04-24T05:28:28;4.20;;;3.13;;
33270;SDS011;53180;51.344;6.152;2023-04-24T05:30:56;3.50;;;2.97;;
33270;SDS011;53180;51.344;6.152;2023-04-24T05:33:25;5.00;;;3.38;;
33270;SDS011;53180;51.344;6.152;2023-04-24T05:35:55;4.50;;;3.17;;
33270;SDS011;53180;51.344;6.152;2023-04-24T05:38:23;4.60;;;3.35;;
33270;SDS011;53180;51.344;6.152;2023-04-24T05:40:52;4.50;;;3.30;;
33270;SDS011;53180;51.344;6.152;2023-04-24T05:43:20;6.13;;;3.30;;
33270;SDS011;53180;51.344;6.152;2023-04-24T05:45:48;4.35;;;3.03;;
33270;SDS011;53180;51.344;6.152;2023-04-24T05:48:17;3.40;;;2.97;;
33270;SDS011;53180;51.344;6.152;2023-04-24T05:50:45;5.20;;;3.25;;
33270;SDS011;53180;51.344;6.152;2023-04-24T05:53:15;5.78;;;3.72;;
33270;SDS011;53180;51.344;6.152;2023-04-24T05:55:43;4.18;;;3.38;;
33270;SDS011;53180;51.344;6.152;2023-04-24T05:58:12;3.80;;;3.05;;
33270;SDS011;53180;51.344;6.152;2023-04-24T06:00:40;4.38;;;2.80;;
33270;SDS011;53180;51.344;6.152;2023-04-24T06:03:09;4.10;;;3.05;;
33270;SDS011;53180;51.344;6.152;2023-04-24T06:05:38;3.97;;;3.20;;
33270;SDS011;53180;51.344;6.152;2023-04-24T06:08:06;2.50;;;2.30;;
33270;SDS011;53180;51.344;6.152;2023-04-24T06:10:36;4.05;;;3.10;;
33270;SDS011;53180;51.344;6.152;2023-04-24T06:13:04;3.15;;;2.45;;
33270;SDS011;53180;51.344;6.152;2023-04-24T06:15:33;5.93;;;3.20;;
33270;SDS011;53180;51.344;6.152;2023-04-24T06:18:01;2.40;;;2.17;;
33270;SDS011;53180;51.344;6.152;2023-04-24T06:20:30;3.83;;;2.58;;
33270;SDS011;53180;51.344;6.152;2023-04-24T06:22:58;5.75;;;2.47;;
33270;SDS011;53180;51.344;6.152;2023-04-24T06:25:26;3.30;;;2.63;;
33270;SDS011;53180;51.344;6.152;2023-04-24T06:27:56;2.30;;;2.08;;
33270;SDS011;53180;51.344;6.152;2023-04-24T06:30:25;2.15;;;1.90;;
33270;SDS011;53180;51.344;6.152;2023-04-24T06:32:55;3.70;;;1.85;;
33270;SDS011;53180;51.344;6.152;2023-04-24T06:35:44;2.65;;;2.10;;
33270;SDS011;53180;51.344;6.152;2023-04-24T06:38:12;2.70;;;1.80;;
33270;SDS011;53180;51.344;6.152;2023-04-24T06:40:42;1.92;;;1.73;;
33270;SDS011;53180;51.344;6.152;2023-04-24T06:43:12;1.77;;;1.67;;
33270;SDS011;53180;51.344;6.152;2023-04-24T06:45:41;1.80;;;1.70;;
33270;SDS011;53180;51.344;6.152;2023-04-24T06:48:10;2.20;;;2.00;;
33270;SDS011;53180;51.344;6.152;2023-04-24T06:50:38;2.28;;;1.80;;
33270;SDS011;53180;51.344;6.152;2023-04-24T06:53:07;1.70;;;1.60;;
33270;SDS011;53180;51.344;6.152;2023-04-24T06:55:37;1.77;;;1.67;;
33270;SDS011;53180;51.344;6.152;2023-04-24T06:58:05;1.50;;;1.40;;
33270;SDS011;53180;51.344;6.152;2023-04-24T07:00:35;1.80;;;1.70;;
33270;SDS011;53180;51.344;6.152;2023-04-24T07:03:04;1.52;;;1.42;;
33270;SDS011;53180;51.344;6.152;2023-04-24T07:05:32;1.70;;;1.60;;
33270;SDS011;53180;51.344;6.152;2023-04-24T07:08:01;1.55;;;1.45;;
33270;SDS011;53180;51.344;6.152;2023-04-24T07:10:30;1.40;;;1.35;;
33270;SDS011;53180;51.344;6.152;2023-04-24T07:13:02;1.70;;;1.60;;
33270;SDS011;53180;51.344;6.152;2023-04-24T07:15:30;1.88;;;1.75;;
33270;SDS011;53180;51.344;6.152;2023-04-24T07:18:00;1.90;;;1.80;;
33270;SDS011;53180;51.344;6.152;2023-04-24T07:20:31;2.10;;;1.90;;
33270;SDS011;53180;51.344;6.152;2023-04-24T07:23:00;3.83;;;1.90;;
33270;SDS011;53180;51.344;6.152;2023-04-24T07:25:28;2.75;;;1.90;;
33270;SDS011;53180;51.344;6.152;2023-04-24T07:27:57;1.83;;;1.73;;
33270;SDS011;53180;51.344;6.152;2023-04-24T07:30:26;1.48;;;1.38;;
33270;SDS011;53180;51.344;6.152;2023-04-24T07:32:55;1.70;;;1.60;;
33270;SDS011;53180;51.344;6.152;2023-04-24T07:35:25;2.10;;;1.90;;
33270;SDS011;53180;51.344;6.152;2023-04-24T07:37:53;2.10;;;1.90;;
33270;SDS011;53180;51.344;6.152;2023-04-24T07:40:22;2.30;;;2.03;;
33270;SDS011;53180;51.344;6.152;2023-04-24T07:42:50;2.22;;;1.73;;
33270;SDS011;53180;51.344;6.152;2023-04-24T07:45:18;2.35;;;1.83;;
33270;SDS011;53180;51.344;6.152;2023-04-24T07:47:46;2.15;;;1.98;;
33270;SDS011;53180;51.344;6.152;2023-04-24T07:50:15;2.05;;;1.95;;
33270;SDS011;53180;51.344;6.152;2023-04-24T07:52:45;2.20;;;2.00;;
33270;SDS011;53180;51.344;6.152;2023-04-24T07:55:13;3.10;;;1.70;;
33270;SDS011;53180;51.344;6.152;2023-04-24T07:57:42;1.85;;;1.70;;
33270;SDS011;53180;51.344;6.152;2023-04-24T08:00:10;1.85;;;1.75;;
33270;SDS011;53180;51.344;6.152;2023-04-24T08:02:40;2.20;;;2.00;;
33270;SDS011;53180;51.344;6.152;2023-04-24T08:05:08;3.30;;;2.53;;
33270;SDS011;53180;51.344;6.152;2023-04-24T08:07:37;6.72;;;2.78;;
33270;SDS011;53180;51.344;6.152;2023-04-24T08:10:09;3.22;;;2.67;;
33270;SDS011;53180;51.344;6.152;2023-04-24T08:12:38;3.92;;;3.05;;
33270;SDS011;53180;51.344;6.152;2023-04-24T08:15:06;6.00;;;3.13;;
33270;SDS011;53180;51.344;6.152;2023-04-24T08:17:36;3.60;;;2.78;;
33270;SDS011;53180;51.344;6.152;2023-04-24T08:20:05;2.65;;;2.35;;
33270;SDS011;53180;51.344;6.152;2023-04-24T08:22:39;4.63;;;2.97;;
33270;SDS011;53180;51.344;6.152;2023-04-24T08:25:09;4.82;;;3.17;;
33270;SDS011;53180;51.344;6.152;2023-04-24T08:27:38;3.40;;;2.72;;
33270;SDS011;53180;51.344;6.152;2023-04-24T08:30:06;3.25;;;2.67;;
33270;SDS011;53180;51.344;6.152;2023-04-24T08:32:35;4.32;;;2.90;;
33270;SDS011;53180;51.344;6.152;2023-04-24T08:35:04;2.92;;;2.40;;
33270;SDS011;53180;51.344;6.152;2023-04-24T08:37:35;3.03;;;2.53;;
33270;SDS011;53180;51.344;6.152;2023-04-24T08:40:05;3.85;;;2.55;;
33270;SDS011;53180;51.344;6.152;2023-04-24T08:42:42;3.85;;;2.67;;
33270;SDS011;53180;51.344;6.152;2023-04-24T08:45:12;3.13;;;2.42;;
33270;SDS011;53180;51.344;6.152;2023-04-24T08:47:41;2.65;;;2.40;;
33270;SDS011;53180;51.344;6.152;2023-04-24T08:50:10;4.05;;;2.75;;
33270;SDS011;53180;51.344;6.152;2023-04-24T08:52:39;2.72;;;2.35;;
33270;SDS011;53180;51.344;6.152;2023-04-24T08:55:09;3.33;;;2.40;;
33270;SDS011;53180;51.344;6.152;2023-04-24T08:57:39;7.55;;;3.20;;
33270;SDS011;53180;51.344;6.152;2023-04-24T09:00:10;2.78;;;2.30;;
33270;SDS011;53180;51.344;6.152;2023-04-24T09:02:41;5.80;;;1.95;;
33270;SDS011;53180;51.344;6.152;2023-04-24T09:05:11;3.38;;;2.55;;
33270;SDS011;53180;51.344;6.152;2023-04-24T09:07:41;3.73;;;2.80;;
33270;SDS011;53180;51.344;6.152;2023-04-24T09:12:42;4.05;;;2.47;;
33270;SDS011;53180;51.344;6.152;2023-04-24T09:15:12;3.15;;;2.72;;
33270;SDS011;53180;51.344;6.152;2023-04-24T09:17:41;6.20;;;3.05;;
33270;SDS011;53180;51.344;6.152;2023-04-24T09:20:10;3.85;;;2.83;;
33270;SDS011;53180;51.344;6.152;2023-04-24T09:22:39;4.18;;;2.97;;
33270;SDS011;53180;51.344;6.152;2023-04-24T09:25:07;2.95;;;2.65;;
33270;SDS011;53180;51.344;6.152;2023-04-24T09:27:42;2.88;;;2.35;;
33270;SDS011;53180;51.344;6.152;2023-04-24T09:30:12;3.33;;;2.47;;
33270;SDS011;53180;51.344;6.152;2023-04-24T09:32:41;4.00;;;2.78;;
33270;SDS011;53180;51.344;6.152;2023-04-24T09:35:11;5.13;;;2.53;;
33270;SDS011;53180;51.344;6.152;2023-04-24T09:40:10;3.15;;;2.58;;
33270;SDS011;53180;51.344;6.152;2023-04-24T09:42:45;3.88;;;2.67;;
33270;SDS011;53180;51.344;6.152;2023-04-24T09:45:18;3.08;;;2.35;;
33270;SDS011;53180;51.344;6.152;2023-04-24T09:47:51;5.32;;;2.83;;
33270;SDS011;53180;51.344;6.152;2023-04-24T09:50:20;2.95;;;2.53;;
33270;SDS011;53180;51.344;6.152;2023-04-24T09:52:55;6.68;;;2.97;;
33270;SDS011;53180;51.344;6.152;2023-04-24T09:55:25;11.90;;;2.83;;
33270;SDS011;53180;51.344;6.152;2023-04-24T09:57:56;2.63;;;2.08;;
33270;SDS011;53180;51.344;6.152;2023-04-24T10:00:26;7.25;;;2.45;;
33270;SDS011;53180;51.344;6.152;2023-04-24T10:02:57;4.90;;;2.63;;
33270;SDS011;53180;51.344;6.152;2023-04-24T10:07:59;3.00;;;2.33;;
33270;SDS011;53180;51.344;6.152;2023-04-24T10:10:31;4.35;;;2.80;;
33270;SDS011;53180;51.344;6.152;2023-04-24T10:13:02;2.67;;;2.28;;
33270;SDS011;53180;51.344;6.152;2023-04-24T10:15:31;2.42;;;2.00;;
33270;SDS011;53180;51.344;6.152;2023-04-24T10:18:00;4.47;;;2.40;;
33270;SDS011;53180;51.344;6.152;2023-04-24T10:20:29;5.28;;;2.50;;
33270;SDS011;53180;51.344;6.152;2023-04-24T10:22:58;2.55;;;2.30;;
33270;SDS011;53180;51.344;6.152;2023-04-24T10:25:28;2.53;;;1.98;;
33270;SDS011;53180;51.344;6.152;2023-04-24T10:27:59;5.00;;;2.47;;
33270;SDS011;53180;51.344;6.152;2023-04-24T10:30:31;2.58;;;2.13;;
33270;SDS011;53180;51.344;6.152;2023-04-24T10:33:02;10.55;;;2.00;;
33270;SDS011;53180;51.344;6.152;2023-04-24T10:35:31;4.38;;;2.63;;
33270;SDS011;53180;51.344;6.152;2023-04-24T10:38:05;3.95;;;2.50;;
33270;SDS011;53180;51.344;6.152;2023-04-24T10:40:36;3.63;;;2.63;;
33270;SDS011;53180;51.344;6.152;2023-04-24T10:43:07;7.40;;;2.53;;
33270;SDS011;53180;51.344;6.152;2023-04-24T10:45:37;2.33;;;1.80;;
33270;SDS011;53180;51.344;6.152;2023-04-24T10:48:07;7.20;;;1.73;;
33270;SDS011;53180;51.344;6.152;2023-04-24T10:50:43;2.83;;;1.90;;
33270;SDS011;53180;51.344;6.152;2023-04-24T10:53:14;2.80;;;1.92;;
33270;SDS011;53180;51.344;6.152;2023-04-24T10:55:45;5.78;;;2.10;;
33270;SDS011;53180;51.344;6.152;2023-04-24T10:58:16;2.63;;;2.05;;
33270;SDS011;53180;51.344;6.152;2023-04-24T11:00:55;4.05;;;2.25;;
33270;SDS011;53180;51.344;6.152;2023-04-24T11:03:26;14.70;;;2.40;;
33270;SDS011;53180;51.344;6.152;2023-04-24T11:05:57;5.45;;;2.13;;
33270;SDS011;53180;51.344;6.152;2023-04-24T11:08:29;3.90;;;1.90;;
33270;SDS011;53180;51.344;6.152;2023-04-24T11:11:00;5.68;;;2.03;;
33270;SDS011;53180;51.344;6.152;2023-04-24T11:16:43;4.47;;;1.80;;
33270;SDS011;53180;51.344;6.152;2023-04-24T11:19:18;4.43;;;1.65;;
33270;SDS011;53180;51.344;6.152;2023-04-24T11:21:55;2.30;;;1.92;;
33270;SDS011;53180;51.344;6.152;2023-04-24T11:24:28;1.80;;;1.70;;
33270;SDS011;53180;51.344;6.152;2023-04-24T11:29:44;5.93;;;1.60;;
33270;SDS011;53180;51.344;6.152;2023-04-24T11:34:57;5.53;;;1.83;;
33270;SDS011;53180;51.344;6.152;2023-04-24T11:37:27;3.00;;;1.73;;
33270;SDS011;53180;51.344;6.152;2023-04-24T11:39:57;1.90;;;1.55;;
33270;SDS011;53180;51.344;6.152;2023-04-24T11:42:27;1.63;;;1.53;;
33270;SDS011;53180;51.344;6.152;2023-04-24T11:44:58;5.85;;;1.67;;
33270;SDS011;53180;51.344;6.152;2023-04-24T11:47:29;2.60;;;1.55;;
33270;SDS011;53180;51.344;6.152;2023-04-24T11:50:00;3.03;;;2.00;;
33270;SDS011;53180;51.344;6.152;2023-04-24T11:52:30;11.32;;;2.35;;
33270;SDS011;53180;51.344;6.152;2023-04-24T11:54:59;3.38;;;1.70;;
33270;SDS011;53180;51.344;6.152;2023-04-24T11:57:28;1.85;;;1.63;;
33270;SDS011;53180;51.344;6.152;2023-04-24T12:00:01;7.40;;;1.67;;
33270;SDS011;53180;51.344;6.152;2023-04-24T12:02:32;2.00;;;1.75;;
33270;SDS011;53180;51.344;6.152;2023-04-24T12:05:04;3.55;;;1.70;;
33270;SDS011;53180;51.344;6.152;2023-04-24T12:07:39;2.17;;;1.60;;
33270;SDS011;53180;51.344;6.152;2023-04-24T12:10:10;2.30;;;1.50;;
33270;SDS011;53180;51.344;6.152;2023-04-24T12:12:38;6.78;;;1.42;;
33270;SDS011;53180;51.344;6.152;2023-04-24T12:15:08;3.13;;;1.33;;
33270;SDS011;53180;51.344;6.152;2023-04-24T12:17:40;2.03;;;1.38;;
33270;SDS011;53180;51.344;6.152;2023-04-24T12:20:10;2.35;;;1.67;;
33270;SDS011;53180;51.344;6.152;2023-04-24T12:22:43;2.92;;;1.58;;
33270;SDS011;53180;51.344;6.152;2023-04-24T12:25:13;1.42;;;1.33;;
33270;SDS011;53180;51.344;6.152;2023-04-24T12:27:43;1.80;;;1.35;;
33270;SDS011;53180;51.344;6.152;2023-04-24T12:30:14;1.55;;;1.20;;
33270;SDS011;53180;51.344;6.152;2023-04-24T12:32:44;2.85;;;1.38;;
33270;SDS011;53180;51.344;6.152;2023-04-24T12:35:18;1.00;;;1.00;;
33270;SDS011;53180;51.344;6.152;2023-04-24T12:37:48;1.38;;;1.15;;
33270;SDS011;53180;51.344;6.152;2023-04-24T12:40:17;8.07;;;1.23;;
33270;SDS011;53180;51.344;6.152;2023-04-24T12:42:48;1.23;;;1.13;;
33270;SDS011;53180;51.344;6.152;2023-04-24T12:45:19;1.50;;;1.40;;
33270;SDS011;53180;51.344;6.152;2023-04-24T12:47:49;1.17;;;1.17;;
33270;SDS011;53180;51.344;6.152;2023-04-24T12:50:18;1.23;;;1.10;;
33270;SDS011;53180;51.344;6.152;2023-04-24T12:52:46;1.20;;;1.10;;
33270;SDS011;53180;51.344;6.152;2023-04-24T12:55:14;0.90;;;0.90;;
33270;SDS011;53180;51.344;6.152;2023-04-24T12:57:43;2.05;;;1.38;;
33270;SDS011;53180;51.344;6.152;2023-04-24T13:00:11;1.00;;;1.00;;
33270;SDS011;53180;51.344;6.152;2023-04-24T13:02:44;1.65;;;1.20;;
33270;SDS011;53180;51.344;6.152;2023-04-24T13:05:13;1.70;;;1.20;;
33270;SDS011;53180;51.344;6.152;2023-04-24T13:07:41;1.40;;;1.17;;
33270;SDS011;53180;51.344;6.152;2023-04-24T13:10:10;1.65;;;1.17;;
33270;SDS011;53180;51.344;6.152;2023-04-24T13:12:39;1.20;;;1.10;;
33270;SDS011;53180;51.344;6.152;2023-04-24T13:15:11;3.65;;;1.23;;
33270;SDS011;53180;51.344;6.152;2023-04-24T13:17:40;4.45;;;1.05;;
33270;SDS011;53180;51.344;6.152;2023-04-24T13:20:10;1.95;;;1.10;;
33270;SDS011;53180;51.344;6.152;2023-04-24T13:22:38;1.10;;;1.05;;
33270;SDS011;53180;51.344;6.152;2023-04-24T13:25:07;2.00;;;1.40;;
33270;SDS011;53180;51.344;6.152;2023-04-24T13:27:37;4.20;;;1.20;;
33270;SDS011;53180;51.344;6.152;2023-04-24T13:30:06;8.25;;;1.10;;
33270;SDS011;53180;51.344;6.152;2023-04-24T13:32:35;1.02;;;0.95;;
33270;SDS011;53180;51.344;6.152;2023-04-24T13:35:04;2.15;;;0.93;;
33270;SDS011;53180;51.344;6.152;2023-04-24T13:37:34;1.10;;;1.00;;
33270;SDS011;53180;51.344;6.152;2023-04-24T13:40:03;1.27;;;1.10;;
33270;SDS011;53180;51.344;6.152;2023-04-24T13:42:33;1.05;;;0.95;;
33270;SDS011;53180;51.344;6.152;2023-04-24T13:45:01;0.90;;;0.90;;
33270;SDS011;53180;51.344;6.152;2023-04-24T13:47:49;1.42;;;1.05;;
33270;SDS011;53180;51.344;6.152;2023-04-24T13:50:18;1.15;;;1.05;;
33270;SDS011;53180;51.344;6.152;2023-04-24T13:52:48;2.95;;;1.20;;
33270;SDS011;53180;51.344;6.152;2023-04-24T13:55:16;0.90;;;0.88;;
33270;SDS011;53180;51.344;6.152;2023-04-24T13:57:45;2.28;;;1.02;;
33270;SDS011;53180;51.344;6.152;2023-04-24T14:00:13;1.48;;;1.05;;
33270;SDS011;53180;51.344;6.152;2023-04-24T14:02:42;1.17;;;1.08;;
33270;SDS011;53180;51.344;6.152;2023-04-24T14:05:12;0.70;;;0.70;;
33270;SDS011;53180;51.344;6.152;2023-04-24T14:07:41;0.85;;;0.85;;
33270;SDS011;53180;51.344;6.152;2023-04-24T14:10:11;5.50;;;1.00;;
33270;SDS011;53180;51.344;6.152;2023-04-24T14:12:39;1.35;;;1.20;;
33270;SDS011;53180;51.344;6.152;2023-04-24T14:15:08;1.95;;;1.10;;
33270;SDS011;53180;51.344;6.152;2023-04-24T14:17:37;1.60;;;1.02;;
33270;SDS011;53180;51.344;6.152;2023-04-24T14:20:06;1.85;;;1.33;;
33270;SDS011;53180;51.344;6.152;2023-04-24T14:22:35;1.55;;;1.00;;
33270;SDS011;53180;51.344;6.152;2023-04-24T14:25:04;0.80;;;0.80;;
33270;SDS011;53180;51.344;6.152;2023-04-24T14:27:35;1.35;;;1.13;;
33270;SDS011;53180;51.344;6.152;2023-04-24T14:30:04;3.72;;;1.17;;
33270;SDS011;53180;51.344;6.152;2023-04-24T14:32:33;0.80;;;0.80;;
33270;SDS011;53180;51.344;6.152;2023-04-24T14:35:02;1.23;;;1.13;;
33270;SDS011;53180;51.344;6.152;2023-04-24T14:37:31;2.88;;;1.00;;
33270;SDS011;53180;51.344;6.152;2023-04-24T14:40:00;1.55;;;1.00;;
33270;SDS011;53180;51.344;6.152;2023-04-24T14:42:50;2.00;;;1.13;;
33270;SDS011;53180;51.344;6.152;2023-04-24T14:45:18;2.42;;;1.33;;
33270;SDS011;53180;51.344;6.152;2023-04-24T14:47:47;1.52;;;1.10;;
33270;SDS011;53180;51.344;6.152;2023-04-24T14:50:15;3.60;;;1.23;;
33270;SDS011;53180;51.344;6.152;2023-04-24T14:52:43;4.20;;;1.38;;
33270;SDS011;53180;51.344;6.152;2023-04-24T14:55:12;4.75;;;0.95;;
33270;SDS011;53180;51.344;6.152;2023-04-24T14:57:42;1.27;;;0.98;;
33270;SDS011;53180;51.344;6.152;2023-04-24T15:00:12;2.13;;;1.20;;
33270;SDS011;53180;51.344;6.152;2023-04-24T15:02:43;1.05;;;0.93;;
33270;SDS011;53180;51.344;6.152;2023-04-24T15:05:11;2.17;;;1.10;;
33270;SDS011;53180;51.344;6.152;2023-04-24T15:07:40;1.63;;;0.90;;
33270;SDS011;53180;51.344;6.152;2023-04-24T15:10:09;0.82;;;0.80;;
33270;SDS011;53180;51.344;6.152;2023-04-24T15:12:38;3.92;;;1.27;;
33270;SDS011;53180;51.344;6.152;2023-04-24T15:15:07;1.45;;;1.00;;
33270;SDS011;53180;51.344;6.152;2023-04-24T15:17:38;1.92;;;1.13;;
33270;SDS011;53180;51.344;6.152;2023-04-24T15:20:06;1.77;;;0.90;;
33270;SDS011;53180;51.344;6.152;2023-04-24T15:22:36;2.13;;;1.25;;
33270;SDS011;53180;51.344;6.152;2023-04-24T15:25:05;4.28;;;2.10;;
33270;SDS011;53180;51.344;6.152;2023-04-24T15:27:41;1.20;;;1.00;;
33270;SDS011;53180;51.344;6.152;2023-04-24T15:30:10;2.53;;;1.05;;
33270;SDS011;53180;51.344;6.152;2023-04-24T15:32:41;1.38;;;1.27;;
33270;SDS011;53180;51.344;6.152;2023-04-24T15:35:09;3.05;;;0.90;;
33270;SDS011;53180;51.344;6.152;2023-04-24T15:37:38;7.13;;;1.30;;
33270;SDS011;53180;51.344;6.152;2023-04-24T15:40:06;1.63;;;1.05;;
33270;SDS011;53180;51.344;6.152;2023-04-24T15:45:06;4.15;;;1.85;;
33270;SDS011;53180;51.344;6.152;2023-04-24T15:47:36;5.65;;;2.38;;
33270;SDS011;53180;51.344;6.152;2023-04-24T15:50:07;2.20;;;1.35;;
33270;SDS011;53180;51.344;6.152;2023-04-24T15:52:39;1.52;;;1.20;;
33270;SDS011;53180;51.344;6.152;2023-04-24T15:55:08;3.65;;;1.33;;
33270;SDS011;53180;51.344;6.152;2023-04-24T15:57:37;1.42;;;1.20;;
33270;SDS011;53180;51.344;6.152;2023-04-24T16:00:06;2.88;;;1.08;;
33270;SDS011;53180;51.344;6.152;2023-04-24T16:02:36;2.70;;;1.15;;
33270;SDS011;53180;51.344;6.152;2023-04-24T16:05:05;1.55;;;1.08;;
33270;SDS011;53180;51.344;6.152;2023-04-24T16:07:36;0.85;;;0.85;;
33270;SDS011;53180;51.344;6.152;2023-04-24T16:10:07;2.08;;;1.35;;
33270;SDS011;53180;51.344;6.152;2023-04-24T16:12:37;1.08;;;0.98;;
33270;SDS011;53180;51.344;6.152;2023-04-24T16:15:06;1.60;;;1.05;;
33270;SDS011;53180;51.344;6.152;2023-04-24T16:17:35;0.80;;;0.80;;
33270;SDS011;53180;51.344;6.152;2023-04-24T16:20:03;1.35;;;1.10;;
33270;SDS011;53180;51.344;6.152;2023-04-24T16:22:35;1.20;;;1.10;;
33270;SDS011;53180;51.344;6.152;2023-04-24T16:25:05;0.75;;;0.75;;